createdAt,value
2023-03-27T00:01:13.213Z,99.90
2023-03-27T00:03:41.037Z,99.90
2023-03-27T00:06:11.371Z,99.90
2023-03-27T00:08:38.681Z,99.90
2023-03-27T00:11:07.849Z,99.90
2023-03-27T00:13:34.876Z,99.90
2023-03-27T00:16:02.727Z,99.90
2023-03-27T00:18:29.783Z,99.90
2023-03-27T00:21:00.908Z,99.90
2023-03-27T00:23:31.663Z,99.90
2023-03-27T00:25:59.477Z,99.90
2023-03-27T00:28:28.620Z,99.90
2023-03-27T00:30:57.392Z,99.90
2023-03-27T00:33:25.981Z,99.90
2023-03-27T00:35:53.235Z,99.90
2023-03-27T00:38:20.957Z,99.90
2023-03-27T00:40:49.170Z,99.90
2023-03-27T00:43:33.798Z,99.90
2023-03-27T00:46:07.941Z,99.90
2023-03-27T00:48:37.422Z,99.90
2023-03-27T00:51:06.853Z,99.90
2023-03-27T00:53:33.944Z,99.90
2023-03-27T00:56:05.100Z,99.90
2023-03-27T00:58:48.804Z,99.90
2023-03-27T01:01:17.035Z,99.90
2023-03-27T01:03:47.479Z,99.90
2023-03-27T01:06:16.992Z,99.90
2023-03-27T01:08:46.628Z,99.90
2023-03-27T01:11:25.653Z,99.90
2023-03-27T01:14:04.946Z,99.90
2023-03-27T01:16:56.197Z,99.90
2023-03-27T01:19:45.914Z,99.90
2023-03-27T01:22:42.682Z,99.90
2023-03-27T01:25:35.755Z,99.90
2023-03-27T01:28:24.876Z,99.90
2023-03-27T01:31:21.313Z,99.90
2023-03-27T01:34:09.865Z,99.90
2023-03-27T01:36:42.617Z,99.90
2023-03-27T01:39:30.330Z,99.90
2023-03-27T01:42:05.253Z,99.90
2023-03-27T01:44:48.405Z,99.90
2023-03-27T01:47:27.783Z,99.90
2023-03-27T01:50:08.127Z,99.90
2023-03-27T01:52:38.387Z,99.90
2023-03-27T01:55:11.454Z,99.90
2023-03-27T01:57:50.037Z,99.90
2023-03-27T02:00:22.633Z,99.90
2023-03-27T02:03:27.876Z,99.90
2023-03-27T02:06:04.847Z,99.90
2023-03-27T02:09:00.467Z,99.90
2023-03-27T02:11:34.506Z,99.90
2023-03-27T02:14:04.199Z,99.90
2023-03-27T02:16:35.457Z,99.90
2023-03-27T02:19:11.775Z,99.90
2023-03-27T02:21:38.514Z,99.90
2023-03-27T02:24:06.096Z,99.90
2023-03-27T02:26:33.757Z,99.90
2023-03-27T02:29:23.472Z,99.90
2023-03-27T02:31:59.600Z,99.90
2023-03-27T02:34:33.636Z,99.90
2023-03-27T02:37:19.821Z,99.90
2023-03-27T02:40:49.229Z,99.90
2023-03-27T02:44:03.060Z,99.90
2023-03-27T02:46:51.975Z,99.90
2023-03-27T02:49:26.345Z,99.90
2023-03-27T02:52:01.398Z,99.90
2023-03-27T02:54:34.344Z,99.90
2023-03-27T02:57:08.704Z,99.90
2023-03-27T03:00:02.632Z,99.90
2023-03-27T03:02:34.676Z,99.90
2023-03-27T03:05:14.087Z,99.90
2023-03-27T03:07:41.602Z,99.90
2023-03-27T03:10:11.656Z,99.90
2023-03-27T03:12:38.650Z,99.90
2023-03-27T03:15:07.864Z,99.90
2023-03-27T03:17:35.370Z,99.90
2023-03-27T03:20:05.050Z,99.90
2023-03-27T03:22:32.296Z,99.90
2023-03-27T03:25:02.419Z,99.90
2023-03-27T03:27:29.313Z,99.90
2023-03-27T03:30:04.600Z,99.90
2023-03-27T03:32:37.103Z,99.90
2023-03-27T03:35:08.381Z,99.90
2023-03-27T03:37:39.080Z,99.90
2023-03-27T03:40:11.759Z,99.90
2023-03-27T03:42:45.670Z,99.90
2023-03-27T03:45:13.223Z,99.90
2023-03-27T03:47:40.053Z,99.90
2023-03-27T03:50:07.681Z,99.90
2023-03-27T03:52:35.113Z,99.90
2023-03-27T03:55:04.011Z,99.90
2023-03-27T03:57:31.337Z,99.90
2023-03-27T04:00:12.193Z,99.90
2023-03-27T04:02:52.244Z,99.90
2023-03-27T04:05:21.694Z,99.90
2023-03-27T04:07:52.292Z,99.90
2023-03-27T04:10:34.710Z,99.90
2023-03-27T04:13:05.142Z,99.90
2023-03-27T04:15:36.632Z,99.90
2023-03-27T04:18:19.572Z,99.90
2023-03-27T04:20:49.832Z,99.90
2023-03-27T04:23:18.806Z,99.90
2023-03-27T04:25:47.044Z,99.90
2023-03-27T04:28:21.324Z,99.90
2023-03-27T04:30:54.675Z,99.90
2023-03-27T04:33:46.858Z,99.90
2023-03-27T04:36:24.072Z,99.90
2023-03-27T04:39:02.225Z,99.90
2023-03-27T04:41:29.574Z,99.90
2023-03-27T04:43:56.392Z,99.90
2023-03-27T04:46:23.722Z,99.90
2023-03-27T04:48:56.899Z,99.90
2023-03-27T04:51:42.695Z,99.90
2023-03-27T04:54:12.542Z,99.90
2023-03-27T04:56:45.871Z,99.90
2023-03-27T04:59:13.466Z,99.90
2023-03-27T05:01:40.341Z,99.90
2023-03-27T05:04:26.364Z,99.90
2023-03-27T05:07:26.536Z,99.90
2023-03-27T05:09:53.503Z,99.90
2023-03-27T05:12:22.219Z,99.90
2023-03-27T05:14:52.497Z,99.90
2023-03-27T05:17:40.879Z,99.90
2023-03-27T05:20:12.270Z,99.90
2023-03-27T05:22:39.327Z,99.90
2023-03-27T05:25:17.219Z,99.90
2023-03-27T05:27:48.113Z,99.90
2023-03-27T05:30:18.006Z,99.90
2023-03-27T05:32:51.739Z,99.90
2023-03-27T05:35:26.107Z,99.90
2023-03-27T05:37:56.152Z,99.90
2023-03-27T05:40:28.888Z,99.90
2023-03-27T05:42:56.829Z,99.90
2023-03-27T05:45:28.113Z,99.90
2023-03-27T05:48:01.137Z,99.90
2023-03-27T05:50:32.452Z,99.90
2023-03-27T05:53:03.902Z,99.90
2023-03-27T05:55:36.634Z,99.90
2023-03-27T05:58:05.972Z,99.90
2023-03-27T06:00:34.172Z,99.90
2023-03-27T06:03:03.178Z,99.90
2023-03-27T06:05:50.351Z,99.90
2023-03-27T06:08:18.369Z,99.90
2023-03-27T06:10:46.474Z,99.90
2023-03-27T06:13:32.184Z,99.90
2023-03-27T06:16:07.891Z,99.90
2023-03-27T06:18:41.277Z,99.90
2023-03-27T06:21:09.506Z,99.90
2023-03-27T06:23:37.115Z,99.90
2023-03-27T06:26:09.936Z,99.90
2023-03-27T06:28:36.826Z,99.90
2023-03-27T06:31:04.057Z,99.90
2023-03-27T06:33:41.033Z,99.90
2023-03-27T06:36:22.052Z,99.90
2023-03-27T06:38:51.838Z,99.90
2023-03-27T06:41:18.555Z,99.90
2023-03-27T06:44:08.914Z,99.90
2023-03-27T06:46:52.010Z,99.90
2023-03-27T06:49:43.696Z,99.90
2023-03-27T06:52:16.324Z,99.90
2023-03-27T06:54:44.297Z,99.90
2023-03-27T06:57:12.387Z,99.90
2023-03-27T06:59:59.095Z,99.90
2023-03-27T07:02:44.761Z,99.90
2023-03-27T07:05:40.485Z,99.90
2023-03-27T07:08:21.770Z,99.90
2023-03-27T07:11:03.855Z,99.90
2023-03-27T07:13:41.436Z,99.90
2023-03-27T07:16:13.724Z,99.90
2023-03-27T07:18:41.916Z,99.90
2023-03-27T07:21:08.961Z,99.90
2023-03-27T07:23:35.743Z,99.90
2023-03-27T07:26:08.188Z,99.90
2023-03-27T07:28:51.796Z,99.90
2023-03-27T07:31:35.026Z,99.90
2023-03-27T07:34:07.099Z,99.90
2023-03-27T07:36:53.026Z,99.90
2023-03-27T07:39:22.058Z,99.90
2023-03-27T07:41:48.960Z,99.90
2023-03-27T07:44:22.430Z,99.90
2023-03-27T07:47:01.537Z,99.90
2023-03-27T07:49:39.286Z,99.90
2023-03-27T07:52:11.564Z,99.90
2023-03-27T07:54:48.759Z,99.90
2023-03-27T07:57:17.722Z,99.90
2023-03-27T07:59:50.497Z,99.90
2023-03-27T08:02:25.226Z,99.90
2023-03-27T08:04:52.636Z,99.90
2023-03-27T08:07:22.526Z,99.90
2023-03-27T08:09:49.264Z,99.90
2023-03-27T08:12:16.087Z,99.90
2023-03-27T08:14:54.542Z,99.90
2023-03-27T08:17:28.319Z,99.90
2023-03-27T08:19:55.956Z,99.90
2023-03-27T08:22:24.641Z,99.90
2023-03-27T08:25:22.635Z,99.90
2023-03-27T08:27:50.548Z,99.90
2023-03-27T08:30:17.770Z,99.90
2023-03-27T08:32:44.888Z,99.90
2023-03-27T08:35:12.133Z,99.90
2023-03-27T08:37:41.475Z,99.90
2023-03-27T08:40:53.240Z,99.90
2023-03-27T08:43:47.553Z,99.90
2023-03-27T08:46:28.919Z,99.90
2023-03-27T08:49:11.147Z,99.90
2023-03-27T08:51:41.687Z,99.90
2023-03-27T08:54:31.620Z,99.90
2023-03-27T08:56:59.906Z,99.90
2023-03-27T08:59:30.150Z,99.90
2023-03-27T09:02:14.728Z,99.90
2023-03-27T09:05:04.798Z,99.90
2023-03-27T09:07:37.429Z,99.90
2023-03-27T09:10:33.388Z,99.90
2023-03-27T09:13:04.429Z,99.90
2023-03-27T09:16:00.564Z,99.90
2023-03-27T09:18:40.506Z,99.90
2023-03-27T09:21:16.896Z,99.90
2023-03-27T09:23:46.373Z,99.90
2023-03-27T09:26:36.298Z,99.90
2023-03-27T09:29:24.860Z,99.90
2023-03-27T09:32:14.817Z,99.90
2023-03-27T09:34:42.111Z,99.90
2023-03-27T09:37:14.388Z,99.90
2023-03-27T09:39:50.009Z,99.90
2023-03-27T09:42:39.202Z,99.90
2023-03-27T09:45:09.313Z,99.90
2023-03-27T09:47:59.966Z,99.90
2023-03-27T09:50:41.392Z,99.90
2023-03-27T09:53:21.420Z,99.90
2023-03-27T09:56:17.604Z,99.90
2023-03-27T09:58:53.852Z,99.90
2023-03-27T10:01:30.665Z,99.90
2023-03-27T10:04:13.884Z,99.50
2023-03-27T10:06:48.225Z,99.90
2023-03-27T10:09:25.059Z,99.90
2023-03-27T10:12:20.851Z,99.90
2023-03-27T10:14:52.555Z,99.90
2023-03-27T10:17:34.849Z,99.30
2023-03-27T10:20:17.471Z,98.60
2023-03-27T10:23:09.112Z,98.40
2023-03-27T10:25:49.764Z,97.40
2023-03-27T10:28:33.697Z,98.90
2023-03-27T10:31:48.210Z,99.80
2023-03-27T10:34:50.645Z,99.90
2023-03-27T10:37:40.843Z,99.90
2023-03-27T10:40:26.261Z,99.90
2023-03-27T10:42:59.507Z,99.90
2023-03-27T10:45:26.549Z,99.90
2023-03-27T10:48:00.866Z,98.40
2023-03-27T10:50:38.783Z,98.60
2023-03-27T10:53:26.385Z,97.40
2023-03-27T10:56:24.742Z,98.90
2023-03-27T10:58:55.406Z,98.60
2023-03-27T11:01:40.355Z,97.40
2023-03-27T11:04:18.643Z,99.90
2023-03-27T11:06:54.330Z,97.90
2023-03-27T11:09:47.806Z,96.80
2023-03-27T11:12:14.572Z,95.00
2023-03-27T11:15:04.523Z,95.10
2023-03-27T11:17:46.417Z,96.20
2023-03-27T11:20:31.818Z,95.10
2023-03-27T11:23:11.860Z,96.90
2023-03-27T11:25:49.917Z,96.20
2023-03-27T11:28:33.884Z,95.50
2023-03-27T11:31:34.289Z,97.40
2023-03-27T11:34:07.169Z,96.60
2023-03-27T11:36:51.309Z,95.70
2023-03-27T11:39:48.272Z,96.40
2023-03-27T11:42:24.132Z,95.90
2023-03-27T11:44:52.260Z,96.90
2023-03-27T11:47:43.362Z,98.70
2023-03-27T11:50:13.298Z,97.30
2023-03-27T11:52:53.090Z,97.40
2023-03-27T11:55:46.281Z,99.90
2023-03-27T11:58:27.031Z,99.90
2023-03-27T12:01:12.600Z,99.90
2023-03-27T12:03:55.842Z,99.90
2023-03-27T12:06:42.327Z,99.90
2023-03-27T12:09:23.262Z,99.90
2023-03-27T12:12:34.109Z,99.90
2023-03-27T12:15:39.293Z,99.90
2023-03-27T12:18:35.880Z,99.90
2023-03-27T12:21:44.856Z,99.90
2023-03-27T12:24:23.943Z,99.90
2023-03-27T12:27:27.471Z,99.90
2023-03-27T12:30:13.212Z,99.90
2023-03-27T12:32:42.394Z,99.90
2023-03-27T12:35:22.180Z,99.90
2023-03-27T12:38:04.189Z,99.90
2023-03-27T12:40:52.705Z,99.90
2023-03-27T12:43:19.678Z,99.90
2023-03-27T12:46:14.509Z,99.90
2023-03-27T12:49:02.037Z,99.90
2023-03-27T12:51:47.504Z,99.90
2023-03-27T12:54:27.644Z,99.90
2023-03-27T12:57:22.308Z,99.90
2023-03-27T12:59:58.907Z,99.90
2023-03-27T13:03:04.374Z,99.90
2023-03-27T13:05:56.144Z,99.90
2023-03-27T13:08:46.315Z,99.90
2023-03-27T13:11:36.644Z,99.90
2023-03-27T13:14:06.355Z,99.90
2023-03-27T13:16:38.978Z,99.90
2023-03-27T13:19:31.073Z,99.90
2023-03-27T13:22:18.742Z,99.90
2023-03-27T13:25:04.223Z,99.90
2023-03-27T13:27:53.647Z,99.90
2023-03-27T13:30:39.418Z,99.90
2023-03-27T13:33:24.200Z,99.90
2023-03-27T13:36:19.389Z,99.90
2023-03-27T13:38:52.416Z,99.90
2023-03-27T13:41:44.894Z,99.90
2023-03-27T13:44:37.991Z,99.90
2023-03-27T13:47:32.771Z,99.90
2023-03-27T13:50:29.964Z,99.90
2023-03-27T13:53:18.123Z,99.90
2023-03-27T13:56:30.506Z,99.90
2023-03-27T13:59:45.501Z,99.90
2023-03-27T14:02:37.313Z,99.90
2023-03-27T14:05:31.596Z,99.90
2023-03-27T14:08:06.600Z,99.90
2023-03-27T14:11:12.447Z,99.90
2023-03-27T14:14:00.279Z,99.90
2023-03-27T14:16:47.433Z,99.90
2023-03-27T14:19:39.012Z,99.90
2023-03-27T14:22:15.903Z,99.90
2023-03-27T14:25:02.977Z,99.90
2023-03-27T14:27:48.760Z,99.90
2023-03-27T14:30:21.623Z,99.90
2023-03-27T14:33:08.721Z,99.90
2023-03-27T14:35:44.151Z,99.90
2023-03-27T14:38:24.880Z,99.90
2023-03-27T14:40:57.702Z,99.90
2023-03-27T14:43:47.352Z,99.90
2023-03-27T14:46:15.975Z,99.90
2023-03-27T14:48:46.403Z,99.90
2023-03-27T14:51:19.449Z,99.90
2023-03-27T14:53:50.888Z,99.90
2023-03-27T14:56:41.853Z,99.90
2023-03-27T14:59:36.145Z,99.90
2023-03-27T15:02:34.576Z,99.90
2023-03-27T15:05:12.349Z,99.90
2023-03-27T15:07:46.173Z,99.90
2023-03-27T15:10:28.196Z,99.90
2023-03-27T15:13:26.109Z,99.90
2023-03-27T15:15:59.857Z,99.90
2023-03-27T15:18:32.943Z,99.90
2023-03-27T15:21:14.432Z,99.90
2023-03-27T15:23:49.960Z,99.90
2023-03-27T15:26:26.871Z,99.90
2023-03-27T15:29:08.075Z,99.90
2023-03-27T15:31:36.376Z,99.90
2023-03-27T15:34:21.194Z,99.90
2023-03-27T15:36:55.166Z,99.90
2023-03-27T15:39:22.893Z,99.90
2023-03-27T15:41:52.273Z,99.90
2023-03-27T15:44:22.057Z,99.90
2023-03-27T15:46:57.814Z,99.90
2023-03-27T15:49:29.315Z,99.90
2023-03-27T15:51:58.178Z,99.90
2023-03-27T15:54:33.605Z,99.90
2023-03-27T15:57:10.540Z,99.90
2023-03-27T15:59:52.755Z,99.90
2023-03-27T16:02:21.570Z,99.90
2023-03-27T16:04:55.672Z,99.90
2023-03-27T16:07:29.134Z,99.90
2023-03-27T16:10:02.320Z,99.90
2023-03-27T16:12:55.864Z,99.90
2023-03-27T16:15:29.868Z,99.90
2023-03-27T16:18:04.200Z,99.90
2023-03-27T16:20:34.475Z,99.90
2023-03-27T16:23:02.148Z,99.90
2023-03-27T16:25:29.138Z,99.90
2023-03-27T16:27:55.967Z,99.90
2023-03-27T16:30:38.882Z,99.90
2023-03-27T16:33:17.780Z,99.90
2023-03-27T16:35:45.767Z,99.90
2023-03-27T16:38:13.897Z,99.90
2023-03-27T16:40:42.958Z,99.90
2023-03-27T16:43:10.385Z,99.90
2023-03-27T16:45:37.992Z,99.90
2023-03-27T16:48:05.590Z,99.90
2023-03-27T16:50:32.501Z,99.90
2023-03-27T16:52:59.223Z,99.90
2023-03-27T16:55:26.823Z,99.90
2023-03-27T16:57:55.006Z,99.90
2023-03-27T17:00:22.854Z,99.90
2023-03-27T17:02:49.705Z,99.90
2023-03-27T17:05:16.692Z,99.90
2023-03-27T17:07:45.091Z,99.90
2023-03-27T17:10:11.926Z,99.90
2023-03-27T17:12:38.656Z,99.90
2023-03-27T17:15:06.151Z,99.90
2023-03-27T17:17:33.008Z,99.90
2023-03-27T17:20:00.547Z,99.90
2023-03-27T17:22:29.741Z,99.90
2023-03-27T17:24:57.899Z,99.90
2023-03-27T17:27:26.424Z,99.90
2023-03-27T17:29:55.462Z,99.90
2023-03-27T17:32:23.607Z,99.90
2023-03-27T17:34:51.948Z,99.90
2023-03-27T17:37:20.204Z,99.90
2023-03-27T17:39:47.091Z,99.90
2023-03-27T17:42:13.819Z,99.90
2023-03-27T17:44:41.455Z,99.90
2023-03-27T17:47:08.504Z,99.90
2023-03-27T17:49:35.792Z,99.90
2023-03-27T17:52:07.905Z,99.90
2023-03-27T17:54:34.873Z,99.90
2023-03-27T17:57:01.955Z,99.90
2023-03-27T17:59:30.891Z,99.90
2023-03-27T18:01:58.051Z,99.90
2023-03-27T18:04:25.778Z,99.90
2023-03-27T18:06:52.845Z,99.90
2023-03-27T18:09:19.730Z,99.90
2023-03-27T18:11:47.168Z,99.90
2023-03-27T18:14:14.326Z,99.90
2023-03-27T18:16:41.072Z,99.90
2023-03-27T18:19:08.792Z,99.90
2023-03-27T18:21:35.978Z,99.90
2023-03-27T18:24:02.821Z,99.90
2023-03-27T18:26:29.621Z,99.90
2023-03-27T18:28:57.579Z,99.90
2023-03-27T18:31:24.631Z,99.90
2023-03-27T18:33:51.471Z,99.90
2023-03-27T18:36:18.716Z,99.90
2023-03-27T18:38:49.175Z,99.90
2023-03-27T18:41:16.572Z,99.90
2023-03-27T18:43:43.299Z,99.90
2023-03-27T18:46:16.202Z,99.90
2023-03-27T18:48:44.419Z,99.90
2023-03-27T18:51:11.322Z,99.90
2023-03-27T18:53:38.666Z,99.90
2023-03-27T18:56:05.758Z,99.90
2023-03-27T18:58:33.192Z,99.90
2023-03-27T19:01:00.036Z,99.90
2023-03-27T19:03:30.314Z,99.90
2023-03-27T19:06:01.145Z,99.90
2023-03-27T19:08:28.225Z,99.90
2023-03-27T19:10:57.217Z,99.90
2023-03-27T19:13:42.741Z,99.90
2023-03-27T19:16:22.646Z,99.90
2023-03-27T19:19:15.840Z,99.90
2023-03-27T19:21:49.359Z,99.90
2023-03-27T19:24:22.193Z,99.90
2023-03-27T19:26:49.059Z,99.90
2023-03-27T19:29:16.317Z,99.90
2023-03-27T19:31:43.218Z,99.90
2023-03-27T19:34:09.951Z,99.90
2023-03-27T19:36:37.285Z,99.90
2023-03-27T19:39:04.515Z,99.90
2023-03-27T19:41:31.290Z,99.90
2023-03-27T19:44:00.254Z,99.90
2023-03-27T19:46:28.424Z,99.90
2023-03-27T19:48:56.410Z,99.90
2023-03-27T19:51:49.090Z,99.90
2023-03-27T19:54:16.540Z,99.90
2023-03-27T19:56:43.211Z,99.90
2023-03-27T19:59:13.203Z,99.90
2023-03-27T20:01:48.201Z,99.90
2023-03-27T20:04:15.390Z,99.90
2023-03-27T20:06:46.724Z,99.90
2023-03-27T20:09:14.617Z,99.90
2023-03-27T20:11:41.817Z,99.90
2023-03-27T20:14:11.937Z,99.90
2023-03-27T20:16:39.016Z,99.90
2023-03-27T20:19:06.040Z,99.90
2023-03-27T20:21:39.224Z,99.90
2023-03-27T20:24:10.686Z,99.90
2023-03-27T20:26:41.995Z,99.90
2023-03-27T20:29:18.153Z,99.90
2023-03-27T20:31:47.943Z,99.90
2023-03-27T20:34:19.022Z,99.90
2023-03-27T20:36:46.063Z,99.90
2023-03-27T20:39:33.748Z,99.90
2023-03-27T20:42:00.497Z,99.90
2023-03-27T20:44:35.522Z,99.90
2023-03-27T20:47:12.266Z,99.90
2023-03-27T20:49:43.251Z,99.90
2023-03-27T20:52:16.312Z,99.90
2023-03-27T20:54:43.079Z,99.90
2023-03-27T20:57:11.816Z,99.90
2023-03-27T20:59:39.012Z,99.90
2023-03-27T21:02:06.473Z,99.90
2023-03-27T21:04:33.217Z,99.90
2023-03-27T21:07:00.113Z,99.90
2023-03-27T21:09:27.175Z,99.90
2023-03-27T21:11:55.470Z,99.90
2023-03-27T21:14:23.156Z,99.90
2023-03-27T21:16:50.253Z,99.90
2023-03-27T21:19:20.275Z,99.90
2023-03-27T21:21:50.693Z,99.90
2023-03-27T21:24:17.654Z,99.90
2023-03-27T21:26:46.475Z,99.90
2023-03-27T21:29:15.307Z,99.90
2023-03-27T21:31:42.289Z,99.90
2023-03-27T21:34:09.187Z,99.90
2023-03-27T21:36:37.771Z,99.90
2023-03-27T21:39:05.695Z,99.90
2023-03-27T21:41:32.617Z,99.90
2023-03-27T21:43:59.304Z,99.90
2023-03-27T21:46:26.088Z,99.90
2023-03-27T21:48:53.446Z,99.90
2023-03-27T21:51:20.296Z,99.90
2023-03-27T21:53:47.338Z,99.90
2023-03-27T21:56:14.268Z,99.90
2023-03-27T21:58:41.098Z,99.90
2023-03-27T22:01:08.082Z,99.90
2023-03-27T22:03:35.501Z,99.90
2023-03-27T22:08:37.617Z,99.90
2023-03-27T22:11:04.603Z,99.90
2023-03-27T22:13:31.489Z,99.90
2023-03-27T22:15:58.561Z,99.90
2023-03-27T22:18:25.862Z,99.90
2023-03-27T22:20:52.578Z,99.90
2023-03-27T22:23:19.424Z,99.90
2023-03-27T22:25:55.476Z,99.90
2023-03-27T22:28:22.406Z,99.90
2023-03-27T22:30:50.755Z,99.90
2023-03-27T22:33:17.422Z,99.90
2023-03-27T22:35:50.222Z,99.90
2023-03-27T22:38:16.952Z,99.90
2023-03-27T22:40:44.227Z,99.90
2023-03-27T22:43:11.372Z,99.90
2023-03-27T22:45:49.830Z,99.90
2023-03-27T22:48:16.687Z,99.90
2023-03-27T22:50:43.414Z,99.90
2023-03-27T22:53:10.339Z,99.90
2023-03-27T22:55:37.041Z,99.90
2023-03-27T22:58:03.815Z,99.90
2023-03-27T23:00:30.976Z,99.90
2023-03-27T23:02:57.832Z,99.90
2023-03-27T23:05:24.558Z,99.90
2023-03-27T23:07:51.624Z,99.90
2023-03-27T23:10:18.880Z,99.90
2023-03-27T23:12:46.037Z,99.90
2023-03-27T23:15:12.821Z,99.90
2023-03-27T23:17:39.468Z,99.90
2023-03-27T23:20:06.563Z,99.90
2023-03-27T23:22:33.240Z,99.90
2023-03-27T23:25:00.280Z,99.90
2023-03-27T23:27:26.990Z,99.90
2023-03-27T23:29:53.649Z,99.90
2023-03-27T23:32:20.341Z,99.90
2023-03-27T23:34:47.371Z,99.90
2023-03-27T23:37:16.414Z,99.90
2023-03-27T23:39:43.125Z,99.90
2023-03-27T23:42:09.939Z,99.90
2023-03-27T23:44:36.772Z,99.90
2023-03-27T23:47:03.521Z,99.90
2023-03-27T23:49:30.421Z,99.90
2023-03-27T23:51:57.129Z,99.90
2023-03-27T23:54:24.132Z,99.90
2023-03-27T23:56:50.993Z,99.90
2023-03-27T23:59:17.974Z,99.90
